Time;durP1;ratioP1;P1;durP2;ratioP2;P2;SDS_P1;SDS_P2;PMS_P1;PMS_P2;Temp;Humidity;BMP_temperature;BMP_pressure;BME280_temperature;BME280_humidity;BME280_pressure;Samples;Min_cycle;Max_cycle;Signal;HPM_P1;HPM_P2
2022/12/29 00:02:00;;;;;;;2.97;1.60;;;12.30;99.90;;;;;;5058810;28;20220;-84
2022/12/29 00:04:26;;;;;;;2.97;1.10;;;12.40;99.90;;;;;;5058520;28;20667;-84
2022/12/29 00:06:53;;;;;;;2.47;1.23;;;12.30;99.90;;;;;;5058327;28;20184;-84
2022/12/29 00:09:18;;;;;;;3.10;1.20;;;12.40;99.90;;;;;;5063105;28;20165;-85
2022/12/29 00:11:44;;;;;;;4.17;1.00;;;12.30;99.90;;;;;;5074431;28;20169;-83
2022/12/29 00:16:56;;;;;;;2.70;0.80;;;12.30;99.90;;;;;;5081848;28;20200;-82
2022/12/29 00:36:26;;;;;;;2.73;0.70;;;12.50;97.50;;;;;;5080958;28;20191;-84
2022/12/29 00:44:26;;;;;;;3.07;1.10;;;12.50;95.40;;;;;;5077418;28;20284;-84
2022/12/29 00:46:52;;;;;;;2.37;0.90;;;12.70;94.60;;;;;;5075775;28;20173;-86
2022/12/29 00:49:30;;;;;;;2.50;1.00;;;12.70;94.20;;;;;;5057120;28;20271;-85
2022/12/29 00:51:58;;;;;;;2.17;0.90;;;12.60;94.40;;;;;;5056716;28;20214;-86
2022/12/29 00:54:24;;;;;;;2.33;0.80;;;12.60;93.40;;;;;;5056806;28;20238;-84
2022/12/29 00:56:50;;;;;;;3.77;1.10;;;12.60;93.80;;;;;;5056465;28;20539;-85
2022/12/29 00:59:17;;;;;;;4.67;1.13;;;12.70;92.90;;;;;;5056299;28;20200;-86
2022/12/29 01:01:44;;;;;;;3.03;1.17;;;12.70;93.00;;;;;;5056459;28;20233;-84
2022/12/29 01:04:11;;;;;;;2.80;0.90;;;12.90;93.80;;;;;;5076813;28;20174;-84
2022/12/29 01:06:39;;;;;;;4.33;1.10;;;12.60;93.90;;;;;;5063272;28;20209;-84
2022/12/29 01:11:50;;;;;;;1.70;0.80;;;12.60;94.70;;;;;;5100616;28;20590;-84
2022/12/29 01:14:16;;;;;;;6.43;1.40;;;12.70;94.60;;;;;;5076565;28;20180;-84
2022/12/29 01:16:42;;;;;;;2.10;0.90;;;12.80;95.50;;;;;;5076737;28;20195;-86
2022/12/29 01:19:08;;;;;;;5.03;1.20;;;12.50;97.60;;;;;;5076755;28;20185;-84
2022/12/29 01:21:34;;;;;;;2.57;0.97;;;12.60;99.20;;;;;;5076589;28;20314;-85
2022/12/29 01:24:00;;;;;;;3.13;0.90;;;12.40;99.90;;;;;;5076424;28;20177;-86
2022/12/29 01:26:25;;;;;;;1.97;0.80;;;12.30;99.90;;;;;;5076120;28;20189;-84
2022/12/29 01:28:51;;;;;;;4.17;1.10;;;12.20;99.90;;;;;;5087098;28;20270;-85
2022/12/29 01:31:17;;;;;;;7.30;1.60;;;12.00;99.90;;;;;;5103555;28;20194;-85
2022/12/29 01:33:44;;;;;;;3.87;1.20;;;11.90;99.90;;;;;;5085178;28;20180;-84
2022/12/29 01:36:16;;;;;;;3.13;1.30;;;11.90;99.90;;;;;;5076034;28;20265;-86
2022/12/29 01:38:42;;;;;;;3.10;1.03;;;11.90;99.90;;;;;;5075875;28;20180;-85
2022/12/29 01:41:09;;;;;;;2.57;1.00;;;12.00;99.90;;;;;;5092401;28;20215;-85
2022/12/29 01:43:42;;;;;;;3.03;0.93;;;11.80;99.90;;;;;;5076243;28;20270;-84
2022/12/29 01:46:39;;;;;;;2.47;1.20;;;11.90;99.90;;;;;;5075777;28;20648;-83
2022/12/29 01:49:23;;;;;;;3.17;1.30;;;11.70;99.90;;;;;;5076262;28;20180;-86
2022/12/29 01:51:59;;;;;;;4.47;1.80;;;11.70;99.90;;;;;;5075780;28;20195;-86
2022/12/29 01:54:30;;;;;;;4.17;1.17;;;11.80;99.90;;;;;;5093572;28;20175;-87
2022/12/29 01:56:59;;;;;;;2.23;1.10;;;11.70;99.90;;;;;;5075609;28;20176;-86
2022/12/29 01:59:30;;;;;;;2.90;0.97;;;11.70;99.90;;;;;;5074843;28;20244;-84
2022/12/29 02:01:56;;;;;;;4.03;1.20;;;11.70;99.90;;;;;;5075850;28;20710;-84
2022/12/29 02:04:24;;;;;;;1.27;0.80;;;11.70;99.90;;;;;;5075274;28;20180;-86
2022/12/29 02:06:55;;;;;;;2.93;1.10;;;11.70;99.90;;;;;;5074369;28;20215;-85
2022/12/29 02:09:21;;;;;;;2.20;0.87;;;11.80;99.90;;;;;;5074760;28;20207;-83
2022/12/29 02:11:47;;;;;;;1.80;0.80;;;11.70;99.90;;;;;;5075127;28;20728;-83
2022/12/29 02:14:14;;;;;;;2.97;0.80;;;11.70;99.90;;;;;;5075355;28;20218;-84
2022/12/29 02:17:06;;;;;;;2.07;0.70;;;11.60;99.90;;;;;;5074887;28;20171;-84
2022/12/29 02:20:11;;;;;;;2.13;0.80;;;11.40;99.90;;;;;;5075710;28;20685;-83
2022/12/29 02:23:18;;;;;;;3.93;0.87;;;11.30;99.90;;;;;;5041722;28;20214;-83
2022/12/29 02:25:50;;;;;;;3.37;0.90;;;11.20;99.90;;;;;;5093556;28;20182;-85
2022/12/29 02:28:44;;;;;;;1.73;0.70;;;11.00;99.90;;;;;;5075867;28;20179;-87
2022/12/29 02:31:27;;;;;;;5.87;1.10;;;11.00;99.90;;;;;;5097450;28;20176;-84
2022/12/29 02:34:20;;;;;;;2.90;1.07;;;11.00;99.90;;;;;;5103124;28;20176;-85
2022/12/29 02:37:15;;;;;;;4.77;0.90;;;10.90;99.90;;;;;;5084471;28;20243;-83
2022/12/29 02:39:46;;;;;;;1.77;0.53;;;10.90;99.90;;;;;;5076199;28;20262;-82
2022/12/29 02:42:23;;;;;;;1.80;0.60;;;10.90;99.90;;;;;;5072945;28;20642;-85
2022/12/29 02:45:02;;;;;;;2.77;0.60;;;10.90;99.90;;;;;;5075175;28;20179;-84
2022/12/29 02:47:34;;;;;;;2.97;0.60;;;10.90;99.90;;;;;;5075047;28;20180;-85
2022/12/29 02:50:04;;;;;;;3.03;0.60;;;10.90;99.90;;;;;;5075373;28;20264;-84
2022/12/29 02:52:40;;;;;;;1.23;0.47;;;11.00;99.90;;;;;;5092911;28;20207;-84
2022/12/29 02:55:06;;;;;;;1.60;0.70;;;11.10;99.90;;;;;;5074630;28;20207;-86
2022/12/29 02:57:35;;;;;;;1.83;0.70;;;11.00;99.90;;;;;;5074708;28;20203;-84
2022/12/29 03:00:07;;;;;;;2.40;0.80;;;11.10;99.90;;;;;;5075059;28;20184;-84
2022/12/29 03:02:54;;;;;;;2.07;0.80;;;11.10;99.90;;;;;;5091575;28;20219;-83
2022/12/29 03:05:23;;;;;;;2.60;0.90;;;11.10;99.90;;;;;;5074676;28;20275;-86
2022/12/29 03:08:16;;;;;;;2.10;0.67;;;11.10;99.90;;;;;;5072227;28;20222;-82
2022/12/29 03:11:04;;;;;;;3.93;1.00;;;10.80;99.90;;;;;;5091357;28;20184;-84
2022/12/29 03:16:43;;;;;;;3.87;1.10;;;10.50;99.90;;;;;;5093777;28;20223;-84
2022/12/29 03:19:32;;;;;;;4.20;1.20;;;10.60;99.90;;;;;;5074978;28;20585;-85
2022/12/29 03:22:27;;;;;;;2.77;0.87;;;10.60;99.90;;;;;;5074918;28;20231;-85
2022/12/29 03:25:18;;;;;;;4.00;0.80;;;10.80;99.90;;;;;;5078137;28;20187;-84
2022/12/29 03:28:09;;;;;;;2.87;1.07;;;10.90;99.90;;;;;;5078448;28;20191;-84
2022/12/29 03:30:38;;;;;;;2.77;0.83;;;11.10;99.90;;;;;;5078548;28;20199;-85
2022/12/29 03:33:07;;;;;;;1.77;0.80;;;11.30;99.90;;;;;;5078131;28;20270;-85
2022/12/29 03:35:37;;;;;;;2.37;0.80;;;11.10;99.90;;;;;;5078100;28;20187;-86
2022/12/29 03:38:05;;;;;;;2.73;0.80;;;11.10;99.90;;;;;;5077944;28;20237;-84
2022/12/29 03:40:32;;;;;;;4.63;0.97;;;11.10;99.90;;;;;;5074685;28;20185;-84
2022/12/29 03:42:58;;;;;;;3.33;1.20;;;11.10;99.90;;;;;;5070694;28;20241;-85
2022/12/29 03:45:24;;;;;;;5.73;1.13;;;11.20;99.90;;;;;;5078334;28;20179;-85
2022/12/29 03:47:51;;;;;;;2.20;1.20;;;11.20;99.90;;;;;;5077942;28;20191;-85
2022/12/29 03:50:17;;;;;;;4.50;1.10;;;11.20;99.90;;;;;;5077847;28;20195;-84
2022/12/29 03:52:42;;;;;;;4.33;1.43;;;11.40;99.90;;;;;;5077670;28;20515;-84
2022/12/29 03:55:08;;;;;;;5.30;1.20;;;11.30;99.90;;;;;;5078649;28;20661;-84
2022/12/29 03:57:34;;;;;;;3.63;1.10;;;11.20;99.90;;;;;;5078746;28;20262;-84
2022/12/29 03:59:59;;;;;;;5.23;1.20;;;11.30;99.90;;;;;;5095958;28;20180;-83
2022/12/29 04:02:25;;;;;;;5.03;1.20;;;11.20;99.90;;;;;;5076408;28;20215;-83
2022/12/29 04:04:51;;;;;;;5.73;1.30;;;11.40;99.90;;;;;;5077841;28;20229;-84
2022/12/29 04:07:16;;;;;;;5.17;1.40;;;11.20;99.90;;;;;;5077946;28;20187;-85
2022/12/29 04:09:42;;;;;;;5.57;1.37;;;11.10;99.90;;;;;;5078123;28;20701;-84
2022/12/29 04:12:08;;;;;;;2.90;1.40;;;11.20;99.90;;;;;;5086648;28;20172;-83
2022/12/29 04:14:33;;;;;;;5.00;1.17;;;11.20;99.90;;;;;;5098509;28;20171;-83
2022/12/29 04:16:59;;;;;;;4.17;0.93;;;11.30;99.90;;;;;;5096263;28;20183;-83
2022/12/29 04:19:25;;;;;;;3.70;1.10;;;11.20;99.90;;;;;;5099541;28;20187;-84
2022/12/29 04:21:50;;;;;;;6.10;1.10;;;11.20;99.90;;;;;;5101671;28;20216;-84
2022/12/29 04:24:16;;;;;;;2.90;1.03;;;11.10;99.90;;;;;;5098685;28;20172;-83
2022/12/29 04:26:44;;;;;;;3.87;0.97;;;11.10;99.90;;;;;;5092807;28;20649;-84
2022/12/29 04:29:10;;;;;;;2.57;0.90;;;11.40;99.90;;;;;;5083538;28;20181;-84
2022/12/29 04:31:37;;;;;;;3.77;0.90;;;11.10;99.90;;;;;;5080332;28;20226;-84
2022/12/29 04:34:03;;;;;;;3.90;1.10;;;11.20;99.90;;;;;;5077048;28;20180;-83
2022/12/29 04:36:47;;;;;;;4.93;1.03;;;11.20;99.90;;;;;;5077795;28;20187;-84
2022/12/29 04:39:13;;;;;;;5.23;1.33;;;11.00;99.90;;;;;;5086406;28;20190;-84
2022/12/29 04:41:39;;;;;;;1.70;0.90;;;11.30;99.90;;;;;;5088342;28;20310;-84
2022/12/29 04:44:04;;;;;;;6.30;1.70;;;11.10;99.90;;;;;;5077054;28;20181;-85
2022/12/29 04:46:30;;;;;;;4.60;1.30;;;11.10;99.90;;;;;;5093649;28;20180;-85
2022/12/29 04:48:56;;;;;;;4.23;1.20;;;11.20;99.90;;;;;;5076269;28;20643;-84
2022/12/29 04:51:22;;;;;;;6.20;1.53;;;11.00;99.90;;;;;;5095933;28;20199;-83
2022/12/29 04:53:47;;;;;;;5.17;1.40;;;11.10;99.90;;;;;;5082718;28;20325;-85
2022/12/29 04:56:15;;;;;;;3.13;1.10;;;11.10;99.90;;;;;;5096684;28;20218;-83
2022/12/29 04:58:40;;;;;;;6.03;1.40;;;11.10;99.90;;;;;;5076439;28;20198;-84
2022/12/29 05:01:06;;;;;;;3.87;1.40;;;11.20;99.90;;;;;;5093154;28;20215;-85
2022/12/29 05:03:32;;;;;;;6.17;1.77;;;11.10;99.90;;;;;;5076323;28;20188;-84
2022/12/29 05:05:59;;;;;;;3.67;1.30;;;11.10;99.90;;;;;;5076661;28;20591;-84
2022/12/29 05:08:25;;;;;;;5.37;1.27;;;11.20;99.90;;;;;;5076250;28;20183;-84
2022/12/29 05:10:51;;;;;;;4.40;1.60;;;11.30;99.90;;;;;;5076310;28;20756;-84
2022/12/29 05:13:17;;;;;;;4.40;1.80;;;11.30;99.90;;;;;;5092945;28;20718;-85
2022/12/29 05:15:51;;;;;;;6.13;1.43;;;11.10;99.90;;;;;;5076416;28;20237;-84
2022/12/29 05:18:17;;;;;;;6.10;1.60;;;11.10;99.90;;;;;;5076135;28;20211;-84
2022/12/29 05:20:43;;;;;;;6.30;1.53;;;11.10;99.90;;;;;;5094288;28;20176;-85
2022/12/29 05:23:08;;;;;;;7.47;1.37;;;11.30;99.90;;;;;;5076205;28;20585;-85
2022/12/29 05:25:34;;;;;;;3.83;1.50;;;11.20;99.90;;;;;;5076323;28;20180;-85
2022/12/29 05:28:00;;;;;;;4.10;1.17;;;11.20;99.90;;;;;;5076038;28;20274;-84
2022/12/29 05:30:25;;;;;;;4.33;1.37;;;11.20;99.90;;;;;;5075691;28;20186;-84
2022/12/29 05:32:51;;;;;;;6.87;1.67;;;11.20;99.90;;;;;;5076122;28;20183;-83
2022/12/29 05:35:16;;;;;;;5.87;1.40;;;11.20;99.90;;;;;;5075861;28;20175;-85
2022/12/29 05:37:42;;;;;;;4.60;1.20;;;11.20;99.90;;;;;;5094212;28;20186;-84
2022/12/29 05:40:09;;;;;;;6.73;1.70;;;11.20;99.90;;;;;;5076065;28;20566;-86
2022/12/29 05:42:34;;;;;;;6.73;1.70;;;11.20;99.90;;;;;;5075157;28;20238;-84
2022/12/29 05:45:00;;;;;;;6.10;1.40;;;11.30;99.90;;;;;;5075355;28;20543;-84
2022/12/29 05:47:26;;;;;;;5.20;1.27;;;11.40;99.40;;;;;;5075346;28;20187;-86
2022/12/29 05:49:51;;;;;;;8.07;1.80;;;11.30;97.20;;;;;;5076105;28;20176;-86
2022/12/29 05:52:17;;;;;;;6.50;1.50;;;11.30;97.10;;;;;;5075936;28;20321;-84
2022/12/29 05:54:43;;;;;;;6.83;1.57;;;11.30;95.70;;;;;;5076556;28;20611;-84
2022/12/29 05:57:09;;;;;;;7.43;1.77;;;11.30;94.90;;;;;;5077713;28;20187;-84
2022/12/29 05:59:35;;;;;;;9.73;2.07;;;11.40;93.60;;;;;;5081499;28;20183;-84
2022/12/29 06:02:00;;;;;;;6.73;1.50;;;11.50;92.70;;;;;;5096034;28;20218;-84
2022/12/29 06:04:26;;;;;;;6.23;1.60;;;11.30;93.50;;;;;;5081631;28;20186;-84
2022/12/29 06:06:52;;;;;;;5.90;1.57;;;11.50;93.00;;;;;;5077867;28;20183;-85
2022/12/29 06:09:17;;;;;;;6.93;1.73;;;11.20;93.40;;;;;;5075724;28;20175;-84
2022/12/29 06:11:43;;;;;;;5.40;1.20;;;11.20;93.50;;;;;;5075489;28;20182;-86
2022/12/29 06:14:09;;;;;;;8.03;1.70;;;11.20;93.20;;;;;;5094271;28;20651;-86
2022/12/29 06:16:35;;;;;;;5.70;1.80;;;11.20;92.30;;;;;;5093523;28;20184;-83
2022/12/29 06:19:01;;;;;;;7.30;1.80;;;11.40;92.70;;;;;;5076580;28;20183;-87
2022/12/29 06:21:27;;;;;;;6.57;1.70;;;11.20;91.90;;;;;;5078876;28;20622;-85
2022/12/29 06:23:52;;;;;;;9.60;1.87;;;11.20;92.20;;;;;;5087502;28;20193;-83
2022/12/29 06:26:19;;;;;;;7.53;1.93;;;11.10;92.40;;;;;;5090524;28;20175;-85
2022/12/29 06:28:45;;;;;;;7.70;1.90;;;11.10;92.00;;;;;;5079944;28;20187;-85
2022/12/29 06:31:10;;;;;;;7.23;2.00;;;11.20;91.80;;;;;;5075799;28;20179;-85
2022/12/29 06:33:37;;;;;;;9.27;1.83;;;11.20;91.70;;;;;;5076731;28;20199;-85
2022/12/29 06:36:03;;;;;;;7.90;1.80;;;11.20;91.90;;;;;;5075481;28;20210;-85
2022/12/29 06:38:28;;;;;;;9.27;2.03;;;11.20;90.80;;;;;;5087767;28;20190;-85
2022/12/29 06:40:54;;;;;;;8.03;1.73;;;11.20;90.40;;;;;;5092024;28;20217;-85
2022/12/29 06:43:20;;;;;;;5.00;1.67;;;11.30;90.10;;;;;;5093893;28;20194;-86
2022/12/29 06:45:54;;;;;;;5.73;1.57;;;11.30;90.60;;;;;;5093567;28;20169;-86
2022/12/29 06:48:20;;;;;;;6.80;2.20;;;11.30;91.10;;;;;;5075313;28;20182;-87
2022/12/29 06:50:45;;;;;;;6.10;1.80;;;11.50;91.60;;;;;;5093038;28;20264;-85
2022/12/29 06:53:11;;;;;;;7.63;2.03;;;11.40;90.20;;;;;;5074988;28;20183;-84
2022/12/29 06:55:37;;;;;;;6.80;1.97;;;11.40;89.30;;;;;;5078904;28;20188;-84
2022/12/29 06:58:02;;;;;;;7.73;2.10;;;11.40;85.80;;;;;;5079226;28;20192;-85
2022/12/29 07:00:28;;;;;;;7.90;1.67;;;11.40;86.20;;;;;;5079399;28;20264;-82
2022/12/29 07:02:55;;;;;;;6.10;1.50;;;11.30;86.00;;;;;;5082397;28;20222;-85
2022/12/29 07:05:21;;;;;;;7.93;2.10;;;11.30;84.70;;;;;;5082097;28;20175;-87
2022/12/29 07:07:47;;;;;;;8.97;2.37;;;11.30;85.90;;;;;;5080598;28;20189;-85
2022/12/29 07:10:12;;;;;;;7.23;2.20;;;11.40;86.30;;;;;;5079689;28;20175;-86
2022/12/29 07:12:38;;;;;;;9.43;2.30;;;11.40;88.20;;;;;;5078378;28;20186;-85
2022/12/29 07:15:04;;;;;;;9.53;1.80;;;11.50;85.20;;;;;;5078126;28;20203;-85
2022/12/29 07:17:30;;;;;;;9.07;2.00;;;11.40;85.40;;;;;;5078537;28;20590;-85
2022/12/29 07:19:55;;;;;;;8.40;2.23;;;11.30;83.90;;;;;;5080325;28;20188;-86
2022/12/29 07:22:21;;;;;;;6.93;2.10;;;11.30;86.20;;;;;;5079557;28;20224;-86
2022/12/29 07:24:47;;;;;;;6.00;1.90;;;11.30;85.10;;;;;;5081561;28;20632;-86
2022/12/29 07:27:13;;;;;;;6.57;1.70;;;11.30;83.60;;;;;;5079324;28;20188;-83
2022/12/29 07:29:38;;;;;;;7.13;1.87;;;11.50;85.80;;;;;;5079368;28;20736;-85
2022/12/29 07:32:04;;;;;;;10.30;2.87;;;11.30;86.50;;;;;;5078366;28;20187;-86
2022/12/29 07:34:30;;;;;;;8.23;2.03;;;11.30;89.20;;;;;;5077737;28;20175;-85
2022/12/29 07:36:55;;;;;;;7.30;1.93;;;11.30;88.80;;;;;;5078171;28;20187;-83
2022/12/29 07:39:21;;;;;;;8.83;1.87;;;11.30;88.60;;;;;;5079064;28;20176;-85
2022/12/29 07:41:47;;;;;;;7.97;1.77;;;11.40;87.50;;;;;;5080382;28;20223;-82
2022/12/29 07:44:12;;;;;;;13.03;2.57;;;11.40;81.50;;;;;;5083393;28;20184;-85
2022/12/29 07:46:38;;;;;;;8.83;2.00;;;11.40;80.50;;;;;;5080693;28;20203;-83
2022/12/29 07:49:03;;;;;;;10.53;2.43;;;11.30;79.80;;;;;;5075708;28;20220;-87
2022/12/29 07:51:29;;;;;;;11.60;2.60;;;11.30;81.50;;;;;;5076935;28;20200;-85
2022/12/29 07:53:55;;;;;;;8.73;2.00;;;11.20;82.80;;;;;;5077038;28;20682;-86
2022/12/29 07:56:20;;;;;;;9.00;2.40;;;11.20;82.50;;;;;;5077449;28;20236;-85
2022/12/29 07:58:47;;;;;;;9.03;2.03;;;11.30;80.40;;;;;;5077903;28;20191;-84
2022/12/29 08:01:13;;;;;;;7.10;1.70;;;11.30;79.70;;;;;;5077328;28;20235;-85
2022/12/29 08:03:41;;;;;;;10.00;2.30;;;11.30;80.30;;;;;;5078092;28;20663;-84
2022/12/29 08:06:09;;;;;;;9.83;2.43;;;11.20;79.70;;;;;;5077076;28;20284;-84
2022/12/29 08:08:35;;;;;;;7.93;1.90;;;11.20;78.70;;;;;;5094292;28;20172;-87
2022/12/29 08:11:00;;;;;;;11.23;2.53;;;11.30;74.80;;;;;;5076974;28;20179;-85
2022/12/29 08:13:26;;;;;;;9.10;2.17;;;11.30;75.70;;;;;;5076832;28;20179;-87
2022/12/29 08:15:52;;;;;;;5.30;1.80;;;11.30;73.70;;;;;;5077790;28;20639;-85
2022/12/29 08:18:17;;;;;;;8.57;2.63;;;11.20;71.80;;;;;;5077602;28;20188;-86
2022/12/29 08:20:43;;;;;;;7.63;1.87;;;11.40;69.60;;;;;;5078171;28;20187;-87
2022/12/29 08:23:09;;;;;;;8.27;1.90;;;11.20;69.40;;;;;;5079350;28;20183;-87
2022/12/29 08:25:34;;;;;;;10.83;2.20;;;11.30;68.40;;;;;;5080849;28;20666;-83
2022/12/29 08:28:00;;;;;;;8.60;2.17;;;11.20;68.70;;;;;;5075499;28;20218;-86
2022/12/29 08:30:25;;;;;;;6.93;2.30;;;11.20;69.30;;;;;;5078145;28;20657;-86
2022/12/29 08:32:51;;;;;;;7.83;2.33;;;11.30;68.20;;;;;;5086945;28;20187;-85
2022/12/29 08:35:17;;;;;;;8.70;2.73;;;11.30;67.20;;;;;;5090144;28;20646;-85
2022/12/29 08:37:42;;;;;;;7.43;2.30;;;11.30;66.60;;;;;;5077656;28;20265;-86
2022/12/29 08:40:10;;;;;;;9.13;2.30;;;11.40;64.50;;;;;;5078935;28;20187;-88
2022/12/29 08:42:36;;;;;;;8.50;2.27;;;11.30;64.20;;;;;;5093668;28;20211;-83
2022/12/29 08:45:02;;;;;;;10.53;2.20;;;11.30;63.50;;;;;;5075315;28;20176;-84
2022/12/29 08:47:27;;;;;;;9.17;2.17;;;11.30;64.00;;;;;;5079672;28;20180;-86
2022/12/29 08:49:53;;;;;;;22.93;2.53;;;11.30;65.60;;;;;;5091571;28;20186;-86
2022/12/29 08:52:19;;;;;;;10.20;2.10;;;11.30;63.50;;;;;;5083311;28;20662;-86
2022/12/29 08:54:47;;;;;;;7.67;2.63;;;11.30;64.80;;;;;;5080640;28;20180;-87
2022/12/29 08:57:12;;;;;;;5.93;1.97;;;11.30;64.90;;;;;;5077891;28;20183;-88
2022/12/29 08:59:38;;;;;;;6.20;1.60;;;11.30;63.00;;;;;;5094645;28;20370;-86
2022/12/29 09:02:04;;;;;;;7.80;2.33;;;11.30;62.20;;;;;;5084922;28;20252;-85
2022/12/29 09:04:29;;;;;;;9.43;2.47;;;11.30;65.10;;;;;;5094745;28;20179;-85
2022/12/29 09:06:55;;;;;;;9.57;2.00;;;11.50;67.00;;;;;;5088427;28;20179;-84
2022/12/29 09:09:21;;;;;;;6.40;2.03;;;11.30;67.50;;;;;;5088448;28;20190;-88
2022/12/29 09:11:48;;;;;;;11.80;2.37;;;11.20;70.40;;;;;;5107966;28;20180;-89
2022/12/29 09:14:14;;;;;;;9.67;2.57;;;11.50;69.20;;;;;;5097892;28;20179;-88
2022/12/29 09:19:25;;;;;;;8.70;2.33;;;11.30;68.80;;;;;;5106378;28;20178;-88
2022/12/29 09:21:50;;;;;;;8.47;2.67;;;11.20;70.00;;;;;;5089619;28;20219;-87
2022/12/29 09:24:18;;;;;;;7.00;2.27;;;11.30;71.90;;;;;;5093090;28;20319;-85
2022/12/29 09:26:44;;;;;;;7.57;2.30;;;11.20;71.50;;;;;;5087471;28;20667;-85
2022/12/29 09:29:09;;;;;;;13.90;2.50;;;11.20;73.40;;;;;;5082963;28;20191;-87
2022/12/29 09:31:35;;;;;;;7.90;1.97;;;11.20;76.30;;;;;;5082064;28;20616;-87
2022/12/29 09:34:01;;;;;;;9.47;2.53;;;11.10;78.20;;;;;;5082642;28;20176;-89
2022/12/29 09:36:26;;;;;;;12.67;2.33;;;11.10;77.20;;;;;;5076943;28;20274;-85
2022/12/29 09:38:53;;;;;;;9.23;2.50;;;11.10;76.60;;;;;;5080410;28;20198;-86
2022/12/29 09:41:36;;;;;;;13.03;2.57;;;11.10;74.30;;;;;;5076500;28;20323;-85
2022/12/29 09:44:30;;;;;;;9.17;2.50;;;11.10;75.40;;;;;;5098097;28;20202;-90
2022/12/29 09:46:57;;;;;;;10.73;2.27;;;11.10;73.40;;;;;;5078487;28;20184;-86
2022/12/29 09:49:32;;;;;;;9.77;2.50;;;11.10;73.70;;;;;;5079447;28;20781;-86
2022/12/29 09:52:05;;;;;;;10.63;2.67;;;11.10;72.90;;;;;;5078101;28;20744;-88
2022/12/29 09:54:36;;;;;;;10.80;2.27;;;11.20;65.30;;;;;;5093175;28;20176;-85
2022/12/29 09:57:03;;;;;;;8.53;2.47;;;11.20;62.20;;;;;;5095173;28;20217;-84
2022/12/29 09:59:40;;;;;;;10.90;2.63;;;11.20;64.50;;;;;;5093094;28;20312;-88
2022/12/29 10:02:21;;;;;;;13.47;3.00;;;11.30;61.30;;;;;;5095720;28;20215;-88
2022/12/29 10:04:48;;;;;;;7.33;2.47;;;11.30;58.80;;;;;;5097634;28;20191;-86
2022/12/29 10:07:22;;;;;;;10.43;2.10;;;11.20;60.80;;;;;;5093504;28;20188;-88
2022/12/29 10:10:12;;;;;;;9.77;2.90;;;11.30;61.10;;;;;;5082324;28;20171;-89
2022/12/29 10:13:04;;;;;;;15.27;3.00;;;11.20;62.80;;;;;;5077136;28;20179;-87
2022/12/29 10:15:41;;;;;;;6.73;2.17;;;11.30;60.90;;;;;;5081358;28;20196;-87
2022/12/29 10:18:55;;;;;;;12.20;2.70;;;11.50;60.30;;;;;;5076624;28;20220;-87
2022/12/29 10:21:43;;;;;;;8.10;2.83;;;11.30;60.20;;;;;;4976148;28;20242;-87
2022/12/29 10:24:12;;;;;;;10.87;2.53;;;11.30;62.20;;;;;;5069101;28;20184;-87
2022/12/29 10:26:42;;;;;;;8.80;2.20;;;11.40;57.60;;;;;;5079124;28;20229;-85
2022/12/29 10:29:19;;;;;;;9.10;2.57;;;11.40;57.10;;;;;;5095874;28;20262;-87
2022/12/29 10:31:58;;;;;;;12.00;2.30;;;11.40;59.40;;;;;;5087039;28;20171;-89
2022/12/29 10:34:37;;;;;;;10.10;3.00;;;11.40;58.60;;;;;;5083966;28;20183;-87
2022/12/29 10:37:15;;;;;;;10.90;3.30;;;11.50;56.40;;;;;;5081413;28;20188;-90
2022/12/29 10:39:49;;;;;;;8.13;2.33;;;11.50;56.10;;;;;;5101616;28;20636;-85
2022/12/29 10:42:34;;;;;;;10.70;3.10;;;11.60;54.10;;;;;;5092437;28;20229;-84
2022/12/29 10:45:00;;;;;;;7.07;2.07;;;11.50;54.60;;;;;;5091571;28;20180;-86
2022/12/29 10:47:31;;;;;;;8.47;2.50;;;11.50;54.50;;;;;;5081397;28;20199;-89
2022/12/29 10:49:58;;;;;;;10.43;2.60;;;11.60;50.10;;;;;;5080269;28;20183;-87
2022/12/29 10:52:26;;;;;;;8.53;2.63;;;11.70;54.00;;;;;;5081344;28;20188;-86
2022/12/29 10:55:29;;;;;;;9.50;2.60;;;11.60;50.10;;;;;;5086839;28;20192;-88
2022/12/29 10:58:00;;;;;;;10.67;3.07;;;11.70;52.00;;;;;;5056826;28;20198;-88
2022/12/29 11:00:26;;;;;;;9.93;2.70;;;11.70;53.60;;;;;;5106598;28;20180;-85
2022/12/29 11:03:03;;;;;;;8.90;2.40;;;11.80;53.60;;;;;;5080847;28;20319;-85
2022/12/29 11:05:49;;;;;;;8.17;2.40;;;11.70;53.00;;;;;;5080210;28;20226;-87
2022/12/29 11:08:22;;;;;;;12.03;2.90;;;11.70;54.30;;;;;;5081024;28;20180;-85
2022/12/29 11:10:58;;;;;;;10.17;2.63;;;11.80;53.90;;;;;;5063977;28;20737;-86
2022/12/29 11:13:31;;;;;;;9.17;2.70;;;11.80;51.10;;;;;;5081762;28;20557;-86
2022/12/29 11:15:56;;;;;;;8.17;2.43;;;11.80;50.50;;;;;;5081647;28;20305;-84
2022/12/29 11:18:22;;;;;;;10.97;3.23;;;11.90;50.00;;;;;;5081698;28;20237;-87
2022/12/29 11:20:51;;;;;;;9.33;2.47;;;12.00;49.70;;;;;;5080835;28;20629;-83
2022/12/29 11:23:30;;;;;;;10.90;2.57;;;12.10;48.80;;;;;;5079466;28;20186;-85
2022/12/29 11:26:10;;;;;;;11.17;2.40;;;12.10;48.20;;;;;;5079590;28;20206;-86
2022/12/29 11:28:41;;;;;;;11.77;3.53;;;11.90;51.40;;;;;;5078356;28;20265;-88
2022/12/29 11:31:09;;;;;;;9.60;2.90;;;11.90;51.80;;;;;;5088211;28;20181;-89
2022/12/29 11:33:37;;;;;;;10.10;2.73;;;11.90;51.30;;;;;;5087538;28;20211;-88
2022/12/29 11:36:11;;;;;;;7.40;3.07;;;11.90;53.70;;;;;;5086747;28;20687;-87
2022/12/29 11:38:40;;;;;;;8.67;2.50;;;11.70;59.10;;;;;;5070746;28;20284;-86
2022/12/29 11:41:10;;;;;;;9.93;3.03;;;11.60;62.40;;;;;;5086895;28;20208;-86
2022/12/29 11:43:43;;;;;;;11.87;2.73;;;11.50;64.30;;;;;;5097546;28;20177;-90
2022/12/29 11:46:31;;;;;;;9.77;2.67;;;11.60;63.80;;;;;;5101673;28;20227;-88
2022/12/29 11:48:59;;;;;;;10.10;2.63;;;11.60;67.20;;;;;;5105664;28;20194;-87
2022/12/29 11:51:43;;;;;;;11.03;2.93;;;11.50;70.60;;;;;;5086582;28;20200;-87
2022/12/29 11:54:31;;;;;;;11.07;2.80;;;11.40;71.10;;;;;;5088977;28;20174;-86
2022/12/29 11:56:58;;;;;;;8.97;2.50;;;11.40;68.40;;;;;;5088332;28;20203;-85
2022/12/29 11:59:27;;;;;;;10.83;2.77;;;11.30;69.00;;;;;;5080605;28;20213;-88
2022/12/29 12:01:54;;;;;;;8.20;2.70;;;11.30;72.00;;;;;;5082282;28;20212;-92
2022/12/29 12:04:24;;;;;;;8.77;2.27;;;11.30;71.10;;;;;;5090756;28;20191;-85
2022/12/29 12:07:02;;;;;;;9.97;2.97;;;11.40;69.20;;;;;;5116039;28;20542;-85
2022/12/29 12:09:55;;;;;;;10.33;2.70;;;11.30;71.00;;;;;;5112448;28;20205;-89
2022/12/29 12:12:53;;;;;;;10.27;2.70;;;11.30;71.20;;;;;;5109390;28;20215;-88
2022/12/29 12:15:36;;;;;;;8.03;2.33;;;11.30;67.30;;;;;;5076705;28;20577;-88
2022/12/29 12:18:18;;;;;;;11.50;3.03;;;11.30;68.50;;;;;;5109816;28;20187;-87
2022/12/29 12:20:56;;;;;;;10.00;2.30;;;11.20;72.00;;;;;;5090315;28;20240;-88
2022/12/29 12:23:42;;;;;;;10.03;2.87;;;11.20;74.90;;;;;;5087947;28;20184;-88
2022/12/29 12:26:16;;;;;;;7.53;2.50;;;11.20;77.40;;;;;;5088780;28;20172;-85
2022/12/29 12:29:03;;;;;;;9.90;3.10;;;11.40;75.10;;;;;;5085700;28;20186;-86
2022/12/29 12:31:56;;;;;;;11.50;2.80;;;11.20;76.70;;;;;;5093852;28;20228;-85
2022/12/29 12:34:36;;;;;;;14.10;3.03;;;11.20;76.40;;;;;;5116513;28;20270;-87
2022/12/29 12:37:19;;;;;;;11.17;2.87;;;11.20;75.90;;;;;;5098089;28;20190;-85
2022/12/29 12:40:21;;;;;;;11.63;2.80;;;11.30;71.90;;;;;;5115171;28;20227;-85
2022/12/29 12:43:25;;;;;;;8.53;2.57;;;11.40;66.80;;;;;;5087763;28;20246;-86
2022/12/29 12:45:59;;;;;;;16.23;2.87;;;11.40;66.30;;;;;;5083862;28;20236;-82
2022/12/29 12:49:03;;;;;;;9.73;2.10;;;11.30;69.00;;;;;;5088841;28;20230;-86
2022/12/29 12:52:06;;;;;;;10.63;2.67;;;11.30;68.70;;;;;;4997354;28;20694;-85
2022/12/29 12:55:04;;;;;;;12.33;2.60;;;11.30;70.70;;;;;;5010950;28;20209;-86
2022/12/29 12:57:53;;;;;;;11.10;3.40;;;11.30;70.50;;;;;;5044432;28;20219;-84
2022/12/29 13:00:22;;;;;;;15.17;5.57;;;11.50;65.90;;;;;;5056218;28;20176;-84
2022/12/29 13:03:12;;;;;;;10.47;3.43;;;11.30;66.10;;;;;;5081027;28;20210;-84
2022/12/29 13:06:18;;;;;;;14.00;3.10;;;11.30;66.30;;;;;;5083082;28;20176;-86
2022/12/29 13:09:05;;;;;;;11.70;3.07;;;11.30;67.50;;;;;;5113975;28;20187;-86
2022/12/29 13:11:54;;;;;;;8.10;2.20;;;11.40;65.10;;;;;;5108436;28;20175;-86
2022/12/29 13:14:29;;;;;;;7.93;2.13;;;11.30;59.70;;;;;;5115854;28;20206;-88
2022/12/29 13:17:19;;;;;;;7.60;2.00;;;11.20;57.80;;;;;;5095410;28;20686;-86
2022/12/29 13:20:00;;;;;;;9.53;2.83;;;11.30;57.50;;;;;;5097144;28;20267;-84
2022/12/29 13:22:44;;;;;;;10.77;2.40;;;11.50;59.00;;;;;;5101899;28;20246;-86
2022/12/29 13:25:39;;;;;;;11.43;3.13;;;11.30;60.50;;;;;;5097921;28;20203;-86
2022/12/29 13:28:20;;;;;;;10.13;2.80;;;11.30;62.50;;;;;;5107438;28;20195;-88
2022/12/29 13:31:04;;;;;;;8.70;2.50;;;11.30;63.20;;;;;;5116120;28;20271;-86
2022/12/29 13:33:52;;;;;;;10.33;2.70;;;11.30;65.50;;;;;;5097520;28;20175;-82
2022/12/29 13:36:43;;;;;;;10.67;2.53;;;11.30;68.80;;;;;;5103309;28;20205;-84
2022/12/29 13:39:20;;;;;;;8.43;2.40;;;11.10;71.80;;;;;;5076650;28;20674;-85
2022/12/29 13:41:50;;;;;;;9.97;2.30;;;11.10;74.90;;;;;;5096869;28;20302;-84
2022/12/29 13:44:25;;;;;;;7.03;2.20;;;11.00;77.50;;;;;;5113930;28;20681;-85